sensor_id;sensor_type;location;lat;lon;timestamp;P1;durP1;ratioP1;P2;durP2;ratioP2
32172;SDS011;18679;45.190;5.722;2023-04-01T00:01:10;4.70;;;1.20;;
32172;SDS011;18679;45.190;5.722;2023-04-01T00:04:16;2.53;;;0.82;;
32172;SDS011;18679;45.190;5.722;2023-04-01T00:07:17;2.47;;;1.05;;
32172;SDS011;18679;45.190;5.722;2023-04-01T00:10:18;6.10;;;1.15;;
32172;SDS011;18679;45.190;5.722;2023-04-01T00:13:19;3.47;;;1.13;;
32172;SDS011;18679;45.190;5.722;2023-04-01T00:16:21;3.85;;;1.10;;
32172;SDS011;18679;45.190;5.722;2023-04-01T00:19:22;1.42;;;0.88;;
32172;SDS011;18679;45.190;5.722;2023-04-01T00:22:23;4.95;;;0.90;;
32172;SDS011;18679;45.190;5.722;2023-04-01T00:25:25;2.55;;;1.10;;
32172;SDS011;18679;45.190;5.722;2023-04-01T00:28:26;4.50;;;1.13;;
32172;SDS011;18679;45.190;5.722;2023-04-01T00:31:27;8.43;;;1.20;;
32172;SDS011;18679;45.190;5.722;2023-04-01T00:34:28;8.13;;;1.10;;
32172;SDS011;18679;45.190;5.722;2023-04-01T00:37:29;2.58;;;1.10;;
32172;SDS011;18679;45.190;5.722;2023-04-01T00:40:37;9.15;;;1.55;;
32172;SDS011;18679;45.190;5.722;2023-04-01T00:43:42;7.70;;;1.27;;
32172;SDS011;18679;45.190;5.722;2023-04-01T00:46:45;3.83;;;1.05;;
32172;SDS011;18679;45.190;5.722;2023-04-01T00:49:46;4.32;;;0.90;;
32172;SDS011;18679;45.190;5.722;2023-04-01T00:52:50;2.50;;;0.70;;
32172;SDS011;18679;45.190;5.722;2023-04-01T00:56:03;3.08;;;0.93;;
32172;SDS011;18679;45.190;5.722;2023-04-01T00:59:08;4.50;;;1.27;;
32172;SDS011;18679;45.190;5.722;2023-04-01T01:02:14;1.73;;;0.90;;
32172;SDS011;18679;45.190;5.722;2023-04-01T01:05:15;3.92;;;0.80;;
32172;SDS011;18679;45.190;5.722;2023-04-01T01:09:02;2.15;;;0.68;;
32172;SDS011;18679;45.190;5.722;2023-04-01T01:11:44;2.58;;;0.60;;
32172;SDS011;18679;45.190;5.722;2023-04-01T01:15:20;3.03;;;0.80;;
32172;SDS011;18679;45.190;5.722;2023-04-01T01:18:34;2.33;;;1.00;;
32172;SDS011;18679;45.190;5.722;2023-04-01T01:25:46;1.48;;;0.88;;
32172;SDS011;18679;45.190;5.722;2023-04-01T01:35:54;6.15;;;1.15;;
32172;SDS011;18679;45.190;5.722;2023-04-01T01:38:58;1.15;;;0.75;;
32172;SDS011;18679;45.190;5.722;2023-04-01T01:42:00;3.75;;;1.20;;
32172;SDS011;18679;45.190;5.722;2023-04-01T01:45:05;6.60;;;1.38;;
32172;SDS011;18679;45.190;5.722;2023-04-01T01:48:08;3.08;;;0.70;;
32172;SDS011;18679;45.190;5.722;2023-04-01T01:51:10;3.97;;;0.85;;
32172;SDS011;18679;45.190;5.722;2023-04-01T01:54:15;3.13;;;0.82;;
32172;SDS011;18679;45.190;5.722;2023-04-01T01:57:19;4.10;;;0.82;;
32172;SDS011;18679;45.190;5.722;2023-04-01T02:00:25;3.88;;;0.88;;
32172;SDS011;18679;45.190;5.722;2023-04-01T02:03:28;2.83;;;0.88;;
32172;SDS011;18679;45.190;5.722;2023-04-01T02:06:32;4.65;;;0.95;;
32172;SDS011;18679;45.190;5.722;2023-04-01T02:09:37;4.82;;;1.17;;
32172;SDS011;18679;45.190;5.722;2023-04-01T02:12:39;4.10;;;0.90;;
32172;SDS011;18679;45.190;5.722;2023-04-01T02:15:45;2.35;;;0.77;;
32172;SDS011;18679;45.190;5.722;2023-04-01T02:18:50;3.17;;;0.88;;
32172;SDS011;18679;45.190;5.722;2023-04-01T02:21:55;3.25;;;0.82;;
32172;SDS011;18679;45.190;5.722;2023-04-01T02:25:04;2.08;;;0.82;;
32172;SDS011;18679;45.190;5.722;2023-04-01T02:28:08;3.92;;;1.40;;
32172;SDS011;18679;45.190;5.722;2023-04-01T02:31:10;7.65;;;1.20;;
32172;SDS011;18679;45.190;5.722;2023-04-01T02:34:14;2.92;;;1.00;;
32172;SDS011;18679;45.190;5.722;2023-04-01T02:37:15;3.78;;;1.20;;
32172;SDS011;18679;45.190;5.722;2023-04-01T02:40:16;3.47;;;1.20;;
32172;SDS011;18679;45.190;5.722;2023-04-01T02:43:18;3.17;;;1.00;;
32172;SDS011;18679;45.190;5.722;2023-04-01T02:46:19;3.90;;;0.70;;
32172;SDS011;18679;45.190;5.722;2023-04-01T02:49:20;2.10;;;0.88;;
32172;SDS011;18679;45.190;5.722;2023-04-01T02:52:21;4.57;;;0.88;;
32172;SDS011;18679;45.190;5.722;2023-04-01T02:55:22;2.60;;;0.82;;
32172;SDS011;18679;45.190;5.722;2023-04-01T02:58:23;1.92;;;0.93;;
32172;SDS011;18679;45.190;5.722;2023-04-01T03:01:24;5.82;;;1.02;;
32172;SDS011;18679;45.190;5.722;2023-04-01T03:04:25;3.25;;;0.70;;
32172;SDS011;18679;45.190;5.722;2023-04-01T03:07:26;1.70;;;0.50;;
32172;SDS011;18679;45.190;5.722;2023-04-01T03:10:27;3.22;;;1.00;;
32172;SDS011;18679;45.190;5.722;2023-04-01T03:13:27;4.30;;;1.13;;
32172;SDS011;18679;45.190;5.722;2023-04-01T03:16:28;5.03;;;1.15;;
32172;SDS011;18679;45.190;5.722;2023-04-01T03:19:29;3.75;;;1.38;;
32172;SDS011;18679;45.190;5.722;2023-04-01T03:22:30;4.38;;;1.20;;
32172;SDS011;18679;45.190;5.722;2023-04-01T03:25:31;10.00;;;1.45;;
32172;SDS011;18679;45.190;5.722;2023-04-01T03:28:32;3.10;;;1.27;;
32172;SDS011;18679;45.190;5.722;2023-04-01T03:31:33;7.07;;;1.33;;
32172;SDS011;18679;45.190;5.722;2023-04-01T03:34:34;5.95;;;1.30;;
32172;SDS011;18679;45.190;5.722;2023-04-01T03:37:35;3.55;;;1.30;;
32172;SDS011;18679;45.190;5.722;2023-04-01T03:40:37;6.40;;;1.60;;
32172;SDS011;18679;45.190;5.722;2023-04-01T03:43:38;5.45;;;1.35;;
32172;SDS011;18679;45.190;5.722;2023-04-01T03:46:39;3.92;;;1.42;;
32172;SDS011;18679;45.190;5.722;2023-04-01T03:49:40;2.47;;;1.40;;
32172;SDS011;18679;45.190;5.722;2023-04-01T03:52:41;8.80;;;1.90;;
32172;SDS011;18679;45.190;5.722;2023-04-01T03:55:42;4.43;;;1.02;;
32172;SDS011;18679;45.190;5.722;2023-04-01T03:58:43;6.18;;;2.13;;
32172;SDS011;18679;45.190;5.722;2023-04-01T04:01:46;3.30;;;0.90;;
32172;SDS011;18679;45.190;5.722;2023-04-01T04:04:47;2.95;;;1.20;;
32172;SDS011;18679;45.190;5.722;2023-04-01T04:07:48;3.70;;;1.20;;
32172;SDS011;18679;45.190;5.722;2023-04-01T04:10:56;1.95;;;0.93;;
32172;SDS011;18679;45.190;5.722;2023-04-01T04:13:57;3.35;;;1.30;;
32172;SDS011;18679;45.190;5.722;2023-04-01T04:16:58;5.78;;;1.10;;
32172;SDS011;18679;45.190;5.722;2023-04-01T04:19:59;3.40;;;1.08;;
32172;SDS011;18679;45.190;5.722;2023-04-01T04:23:00;5.85;;;1.10;;
32172;SDS011;18679;45.190;5.722;2023-04-01T04:26:05;3.53;;;1.15;;
32172;SDS011;18679;45.190;5.722;2023-04-01T04:29:08;1.80;;;0.82;;
32172;SDS011;18679;45.190;5.722;2023-04-01T04:32:09;4.90;;;1.10;;
32172;SDS011;18679;45.190;5.722;2023-04-01T04:35:10;4.50;;;1.08;;
32172;SDS011;18679;45.190;5.722;2023-04-01T04:38:11;6.65;;;1.38;;
32172;SDS011;18679;45.190;5.722;2023-04-01T04:41:13;4.55;;;1.00;;
32172;SDS011;18679;45.190;5.722;2023-04-01T04:44:17;4.28;;;0.90;;
32172;SDS011;18679;45.190;5.722;2023-04-01T04:47:17;4.35;;;1.05;;
32172;SDS011;18679;45.190;5.722;2023-04-01T04:50:18;2.50;;;1.33;;
32172;SDS011;18679;45.190;5.722;2023-04-01T04:53:20;3.35;;;1.02;;
32172;SDS011;18679;45.190;5.722;2023-04-01T04:56:21;4.68;;;0.98;;
32172;SDS011;18679;45.190;5.722;2023-04-01T04:59:42;2.78;;;1.10;;
32172;SDS011;18679;45.190;5.722;2023-04-01T05:02:57;1.58;;;1.10;;
32172;SDS011;18679;45.190;5.722;2023-04-01T05:05:58;7.05;;;1.02;;
32172;SDS011;18679;45.190;5.722;2023-04-01T05:08:59;2.55;;;0.73;;
32172;SDS011;18679;45.190;5.722;2023-04-01T05:12:00;4.72;;;1.65;;
32172;SDS011;18679;45.190;5.722;2023-04-01T05:15:07;2.90;;;1.10;;
32172;SDS011;18679;45.190;5.722;2023-04-01T05:18:08;7.75;;;1.58;;
32172;SDS011;18679;45.190;5.722;2023-04-01T05:21:09;5.00;;;1.20;;
32172;SDS011;18679;45.190;5.722;2023-04-01T05:24:11;6.93;;;1.50;;
32172;SDS011;18679;45.190;5.722;2023-04-01T05:27:13;3.55;;;1.73;;
32172;SDS011;18679;45.190;5.722;2023-04-01T05:30:15;11.75;;;1.23;;
32172;SDS011;18679;45.190;5.722;2023-04-01T05:33:30;5.22;;;1.27;;
32172;SDS011;18679;45.190;5.722;2023-04-01T05:36:31;13.20;;;1.52;;
32172;SDS011;18679;45.190;5.722;2023-04-01T05:39:36;3.28;;;1.42;;
32172;SDS011;18679;45.190;5.722;2023-04-01T05:42:38;7.20;;;1.20;;
32172;SDS011;18679;45.190;5.722;2023-04-01T05:45:39;4.53;;;1.20;;
32172;SDS011;18679;45.190;5.722;2023-04-01T05:48:59;7.85;;;1.42;;
32172;SDS011;18679;45.190;5.722;2023-04-01T05:52:01;3.90;;;1.15;;
32172;SDS011;18679;45.190;5.722;2023-04-01T05:55:02;3.97;;;1.67;;
32172;SDS011;18679;45.190;5.722;2023-04-01T05:58:04;2.65;;;1.17;;
32172;SDS011;18679;45.190;5.722;2023-04-01T06:01:10;5.45;;;1.10;;
32172;SDS011;18679;45.190;5.722;2023-04-01T06:04:15;3.60;;;1.52;;
32172;SDS011;18679;45.190;5.722;2023-04-01T06:07:18;4.97;;;1.60;;
32172;SDS011;18679;45.190;5.722;2023-04-01T06:10:20;2.83;;;1.25;;
32172;SDS011;18679;45.190;5.722;2023-04-01T06:16:55;6.10;;;1.50;;
32172;SDS011;18679;45.190;5.722;2023-04-01T06:20:25;3.85;;;1.10;;
32172;SDS011;18679;45.190;5.722;2023-04-01T06:26:37;3.70;;;1.00;;
32172;SDS011;18679;45.190;5.722;2023-04-01T06:36:57;7.38;;;1.50;;
32172;SDS011;18679;45.190;5.722;2023-04-01T06:54:37;1.60;;;1.25;;
32172;SDS011;18679;45.190;5.722;2023-04-01T06:58:25;7.43;;;1.40;;
32172;SDS011;18679;45.190;5.722;2023-04-01T07:01:31;6.28;;;1.55;;
32172;SDS011;18679;45.190;5.722;2023-04-01T07:04:37;5.70;;;1.42;;
32172;SDS011;18679;45.190;5.722;2023-04-01T07:07:48;7.47;;;1.48;;
32172;SDS011;18679;45.190;5.722;2023-04-01T07:10:58;10.10;;;1.20;;
32172;SDS011;18679;45.190;5.722;2023-04-01T07:17:43;5.25;;;1.40;;
32172;SDS011;18679;45.190;5.722;2023-04-01T07:20:46;2.75;;;1.08;;
32172;SDS011;18679;45.190;5.722;2023-04-01T07:23:51;2.58;;;1.00;;
32172;SDS011;18679;45.190;5.722;2023-04-01T07:27:25;9.93;;;1.48;;
32172;SDS011;18679;45.190;5.722;2023-04-01T07:30:26;4.07;;;1.20;;
32172;SDS011;18679;45.190;5.722;2023-04-01T07:33:45;6.65;;;1.63;;
32172;SDS011;18679;45.190;5.722;2023-04-01T07:37:17;6.43;;;1.63;;
32172;SDS011;18679;45.190;5.722;2023-04-01T07:40:40;2.70;;;1.48;;
32172;SDS011;18679;45.190;5.722;2023-04-01T07:54:34;5.80;;;1.80;;
32172;SDS011;18679;45.190;5.722;2023-04-01T08:08:02;3.17;;;1.25;;
32172;SDS011;18679;45.190;5.722;2023-04-01T08:15:35;5.68;;;1.60;;
32172;SDS011;18679;45.190;5.722;2023-04-01T08:25:46;10.85;;;1.80;;
32172;SDS011;18679;45.190;5.722;2023-04-01T08:29:16;13.43;;;1.98;;
32172;SDS011;18679;45.190;5.722;2023-04-01T08:32:23;2.90;;;1.60;;
32172;SDS011;18679;45.190;5.722;2023-04-01T08:35:34;7.32;;;2.17;;
32172;SDS011;18679;45.190;5.722;2023-04-01T08:38:44;4.28;;;1.20;;
32172;SDS011;18679;45.190;5.722;2023-04-01T08:58:47;1.88;;;0.98;;
32172;SDS011;18679;45.190;5.722;2023-04-01T09:08:58;1.80;;;1.35;;
32172;SDS011;18679;45.190;5.722;2023-04-01T09:56:52;5.43;;;0.90;;
32172;SDS011;18679;45.190;5.722;2023-04-01T10:17:53;2.55;;;0.75;;
32172;SDS011;18679;45.190;5.722;2023-04-01T10:32:23;5.93;;;1.08;;
32172;SDS011;18679;45.190;5.722;2023-04-01T10:45:47;1.90;;;0.73;;
32172;SDS011;18679;45.190;5.722;2023-04-01T10:52:46;2.38;;;0.47;;
32172;SDS011;18679;45.190;5.722;2023-04-01T10:56:15;4.53;;;0.93;;
32172;SDS011;18679;45.190;5.722;2023-04-01T11:31:47;3.00;;;0.73;;
32172;SDS011;18679;45.190;5.722;2023-04-01T11:45:39;1.27;;;0.93;;
32172;SDS011;18679;45.190;5.722;2023-04-01T11:49:00;1.00;;;0.50;;
32172;SDS011;18679;45.190;5.722;2023-04-01T11:55:45;2.50;;;0.60;;
32172;SDS011;18679;45.190;5.722;2023-04-01T12:09:25;0.30;;;0.30;;
32172;SDS011;18679;45.190;5.722;2023-04-01T12:16:41;1.85;;;0.30;;
32172;SDS011;18679;45.190;5.722;2023-04-01T12:19:43;4.53;;;0.60;;
32172;SDS011;18679;45.190;5.722;2023-04-01T12:26:21;2.13;;;0.65;;
32172;SDS011;18679;45.190;5.722;2023-04-01T12:33:22;1.30;;;0.57;;
32172;SDS011;18679;45.190;5.722;2023-04-01T12:46:15;1.52;;;0.40;;
32172;SDS011;18679;45.190;5.722;2023-04-01T12:49:42;3.95;;;0.68;;
32172;SDS011;18679;45.190;5.722;2023-04-01T12:56:21;1.05;;;0.43;;
32172;SDS011;18679;45.190;5.722;2023-04-01T13:10:27;0.90;;;0.70;;
32172;SDS011;18679;45.190;5.722;2023-04-01T13:33:21;2.17;;;0.65;;
32172;SDS011;18679;45.190;5.722;2023-04-01T14:03:47;0.93;;;0.45;;
32172;SDS011;18679;45.190;5.722;2023-04-01T14:13:07;0.60;;;0.20;;
32172;SDS011;18679;45.190;5.722;2023-04-01T14:23:18;1.13;;;0.30;;
32172;SDS011;18679;45.190;5.722;2023-04-01T14:47:58;0.57;;;0.20;;
32172;SDS011;18679;45.190;5.722;2023-04-01T14:51:19;1.13;;;0.30;;
32172;SDS011;18679;45.190;5.722;2023-04-01T14:54:34;1.92;;;0.32;;
32172;SDS011;18679;45.190;5.722;2023-04-01T14:57:37;0.68;;;0.30;;
32172;SDS011;18679;45.190;5.722;2023-04-01T15:00:50;3.25;;;0.35;;
32172;SDS011;18679;45.190;5.722;2023-04-01T15:13:58;4.22;;;0.40;;
32172;SDS011;18679;45.190;5.722;2023-04-01T15:24:07;1.80;;;0.30;;
32172;SDS011;18679;45.190;5.722;2023-04-01T15:31:09;0.98;;;0.30;;
32172;SDS011;18679;45.190;5.722;2023-04-01T15:34:25;4.60;;;1.10;;
32172;SDS011;18679;45.190;5.722;2023-04-01T15:37:39;0.50;;;0.32;;
32172;SDS011;18679;45.190;5.722;2023-04-01T16:02:18;1.17;;;0.80;;
32172;SDS011;18679;45.190;5.722;2023-04-01T16:09:00;0.65;;;0.50;;
32172;SDS011;18679;45.190;5.722;2023-04-01T16:12:33;0.93;;;0.45;;
32172;SDS011;18679;45.190;5.722;2023-04-01T16:22:16;1.52;;;0.88;;
32172;SDS011;18679;45.190;5.722;2023-04-01T16:25:43;5.45;;;1.20;;
32172;SDS011;18679;45.190;5.722;2023-04-01T16:35:44;6.28;;;0.90;;
32172;SDS011;18679;45.190;5.722;2023-04-01T16:45:54;1.30;;;0.30;;
32172;SDS011;18679;45.190;5.722;2023-04-01T16:52:58;1.30;;;0.20;;
32172;SDS011;18679;45.190;5.722;2023-04-01T16:56:21;8.00;;;2.40;;
32172;SDS011;18679;45.190;5.722;2023-04-01T16:59:24;2.28;;;0.95;;
32172;SDS011;18679;45.190;5.722;2023-04-01T17:02:35;1.08;;;0.50;;
32172;SDS011;18679;45.190;5.722;2023-04-01T17:06:02;2.58;;;1.13;;
32172;SDS011;18679;45.190;5.722;2023-04-01T17:12:33;3.22;;;0.60;;
32172;SDS011;18679;45.190;5.722;2023-04-01T17:26:16;2.88;;;0.73;;
32172;SDS011;18679;45.190;5.722;2023-04-01T17:29:31;4.40;;;0.60;;
32172;SDS011;18679;45.190;5.722;2023-04-01T17:45:45;4.35;;;0.60;;
32172;SDS011;18679;45.190;5.722;2023-04-01T18:09:15;2.05;;;1.08;;
32172;SDS011;18679;45.190;5.722;2023-04-01T18:25:41;2.08;;;1.00;;
32172;SDS011;18679;45.190;5.722;2023-04-01T18:39:17;1.67;;;0.80;;
32172;SDS011;18679;45.190;5.722;2023-04-01T18:45:50;1.83;;;0.77;;
32172;SDS011;18679;45.190;5.722;2023-04-01T18:49:11;2.90;;;1.10;;
32172;SDS011;18679;45.190;5.722;2023-04-01T18:52:27;1.10;;;0.60;;
32172;SDS011;18679;45.190;5.722;2023-04-01T18:55:37;2.50;;;0.68;;
32172;SDS011;18679;45.190;5.722;2023-04-01T18:58:48;2.30;;;1.50;;
32172;SDS011;18679;45.190;5.722;2023-04-01T19:05:17;4.85;;;2.30;;
32172;SDS011;18679;45.190;5.722;2023-04-01T19:08:31;2.58;;;1.20;;
32172;SDS011;18679;45.190;5.722;2023-04-01T19:11:36;4.57;;;1.42;;
32172;SDS011;18679;45.190;5.722;2023-04-01T19:21:53;3.22;;;1.83;;
32172;SDS011;18679;45.190;5.722;2023-04-01T19:28:34;5.43;;;2.15;;
32172;SDS011;18679;45.190;5.722;2023-04-01T19:38:30;5.57;;;1.60;;
32172;SDS011;18679;45.190;5.722;2023-04-01T19:41:46;6.35;;;2.28;;
32172;SDS011;18679;45.190;5.722;2023-04-01T19:45:20;9.32;;;2.47;;
32172;SDS011;18679;45.190;5.722;2023-04-01T20:04:53;4.07;;;1.97;;
32172;SDS011;18679;45.190;5.722;2023-04-01T20:08:03;4.30;;;1.80;;
32172;SDS011;18679;45.190;5.722;2023-04-01T20:14:53;1.85;;;1.08;;
32172;SDS011;18679;45.190;5.722;2023-04-01T20:17:57;4.32;;;1.50;;
32172;SDS011;18679;45.190;5.722;2023-04-01T20:21:05;3.75;;;1.02;;
32172;SDS011;18679;45.190;5.722;2023-04-01T20:24:23;3.03;;;0.40;;
32172;SDS011;18679;45.190;5.722;2023-04-01T20:27:31;2.20;;;0.50;;
32172;SDS011;18679;45.190;5.722;2023-04-01T20:36:46;1.92;;;0.90;;
32172;SDS011;18679;45.190;5.722;2023-04-01T20:40:23;1.75;;;0.88;;
32172;SDS011;18679;45.190;5.722;2023-04-01T20:50:06;2.47;;;1.00;;
32172;SDS011;18679;45.190;5.722;2023-04-01T21:06:33;8.93;;;2.10;;
32172;SDS011;18679;45.190;5.722;2023-04-01T21:16:47;2.80;;;1.70;;
32172;SDS011;18679;45.190;5.722;2023-04-01T21:26:59;4.80;;;2.33;;
32172;SDS011;18679;45.190;5.722;2023-04-01T21:33:35;3.95;;;1.60;;
32172;SDS011;18679;45.190;5.722;2023-04-01T21:37:06;1.10;;;0.75;;
32172;SDS011;18679;45.190;5.722;2023-04-01T21:50:44;2.90;;;0.93;;
32172;SDS011;18679;45.190;5.722;2023-04-01T22:10:19;2.13;;;1.10;;
32172;SDS011;18679;45.190;5.722;2023-04-01T22:13:37;1.25;;;0.90;;
32172;SDS011;18679;45.190;5.722;2023-04-01T22:16:56;2.53;;;1.02;;
32172;SDS011;18679;45.190;5.722;2023-04-01T22:20:06;1.42;;;1.17;;
32172;SDS011;18679;45.190;5.722;2023-04-01T22:23:54;1.88;;;1.20;;
32172;SDS011;18679;45.190;5.722;2023-04-01T22:30:22;1.80;;;1.25;;
32172;SDS011;18679;45.190;5.722;2023-04-01T22:37:15;2.70;;;1.75;;
32172;SDS011;18679;45.190;5.722;2023-04-01T22:43:54;1.25;;;0.93;;
32172;SDS011;18679;45.190;5.722;2023-04-01T22:47:04;2.03;;;0.85;;
32172;SDS011;18679;45.190;5.722;2023-04-01T22:50:40;1.48;;;0.90;;
32172;SDS011;18679;45.190;5.722;2023-04-01T22:54:05;1.52;;;1.10;;
32172;SDS011;18679;45.190;5.722;2023-04-01T22:57:18;1.95;;;1.33;;
32172;SDS011;18679;45.190;5.722;2023-04-01T23:00:40;2.85;;;1.25;;
32172;SDS011;18679;45.190;5.722;2023-04-01T23:03:46;2.55;;;1.40;;
32172;SDS011;18679;45.190;5.722;2023-04-01T23:06:50;1.65;;;1.00;;
32172;SDS011;18679;45.190;5.722;2023-04-01T23:09:56;3.15;;;1.58;;
32172;SDS011;18679;45.190;5.722;2023-04-01T23:12:59;6.47;;;1.20;;
32172;SDS011;18679;45.190;5.722;2023-04-01T23:16:02;6.72;;;1.85;;
32172;SDS011;18679;45.190;5.722;2023-04-01T23:19:10;3.03;;;1.60;;
32172;SDS011;18679;45.190;5.722;2023-04-01T23:22:26;1.98;;;1.20;;
32172;SDS011;18679;45.190;5.722;2023-04-01T23:25:36;6.53;;;1.70;;
32172;SDS011;18679;45.190;5.722;2023-04-01T23:28:59;3.65;;;1.88;;
32172;SDS011;18679;45.190;5.722;2023-04-01T23:32:02;3.67;;;1.30;;
32172;SDS011;18679;45.190;5.722;2023-04-01T23:35:11;2.67;;;1.40;;
32172;SDS011;18679;45.190;5.722;2023-04-01T23:38:17;4.32;;;1.70;;
32172;SDS011;18679;45.190;5.722;2023-04-01T23:41:28;3.03;;;1.50;;
32172;SDS011;18679;45.190;5.722;2023-04-01T23:44:32;7.45;;;1.70;;
32172;SDS011;18679;45.190;5.722;2023-04-01T23:47:36;5.38;;;2.25;;
32172;SDS011;18679;45.190;5.722;2023-04-01T23:50:39;4.50;;;2.03;;
32172;SDS011;18679;45.190;5.722;2023-04-01T23:53:42;2.63;;;1.98;;
32172;SDS011;18679;45.190;5.722;2023-04-01T23:56:46;2.58;;;1.80;;
